createdAt,value
2017-08-13T00:01:34.868Z,14.70
2017-08-13T00:04:03.234Z,14.70
2017-08-13T00:06:31.624Z,14.70
2017-08-13T00:08:59.212Z,14.70
2017-08-13T00:11:26.793Z,14.60
2017-08-13T00:13:55.185Z,14.60
2017-08-13T00:16:22.793Z,14.60
2017-08-13T00:18:51.143Z,14.60
2017-08-13T00:21:19.550Z,14.50
2017-08-13T00:23:47.132Z,14.50
2017-08-13T00:26:14.710Z,14.50
2017-08-13T00:28:43.108Z,14.50
2017-08-13T00:31:10.709Z,14.40
2017-08-13T00:33:39.070Z,14.50
2017-08-13T00:36:07.479Z,14.40
2017-08-13T00:38:35.082Z,14.40
2017-08-13T00:41:03.441Z,14.40
2017-08-13T00:43:31.837Z,14.40
2017-08-13T00:45:59.524Z,14.40
2017-08-13T00:48:27.109Z,14.40
2017-08-13T00:50:54.976Z,14.40
2017-08-13T00:53:22.547Z,14.40
2017-08-13T00:55:50.149Z,14.30
2017-08-13T00:58:17.772Z,14.30
2017-08-13T01:00:45.342Z,14.30
2017-08-13T01:03:12.914Z,14.30
2017-08-13T01:05:40.570Z,14.30
2017-08-13T01:08:08.151Z,14.20
2017-08-13T01:10:35.734Z,14.20
2017-08-13T01:13:03.561Z,14.20
2017-08-13T01:15:31.969Z,14.20
2017-08-13T01:17:59.552Z,14.10
2017-08-13T01:20:27.968Z,14.10
2017-08-13T01:22:55.552Z,14.10
2017-08-13T01:25:23.894Z,14.00
2017-08-13T01:27:51.700Z,14.10
2017-08-13T01:30:19.289Z,14.10
2017-08-13T01:32:46.854Z,14.10
2017-08-13T01:35:14.493Z,14.00
2017-08-13T01:37:42.075Z,14.00
2017-08-13T01:40:09.720Z,14.00
2017-08-13T01:42:37.572Z,14.00
2017-08-13T01:45:05.166Z,14.00
2017-08-13T01:47:32.743Z,14.00
2017-08-13T01:50:01.118Z,14.00
2017-08-13T01:52:28.699Z,14.00
2017-08-13T01:54:56.285Z,14.10
2017-08-13T01:57:24.680Z,14.10
2017-08-13T01:59:52.250Z,14.10
2017-08-13T02:02:19.847Z,14.20
2017-08-13T02:04:47.485Z,14.20
2017-08-13T02:07:15.846Z,14.20
2017-08-13T02:09:44.193Z,14.30
2017-08-13T02:12:11.821Z,14.20
2017-08-13T02:14:39.386Z,14.30
2017-08-13T02:17:06.968Z,14.30
2017-08-13T02:19:34.617Z,14.30
2017-08-13T02:22:02.192Z,14.30
2017-08-13T02:24:29.785Z,14.30
2017-08-13T02:26:58.166Z,14.30
2017-08-13T02:29:25.752Z,14.30
2017-08-13T02:31:53.350Z,14.40
2017-08-13T02:34:20.984Z,14.30
2017-08-13T02:36:48.572Z,14.40
2017-08-13T02:39:16.156Z,14.40
2017-08-13T02:41:44.561Z,14.40
2017-08-13T02:44:12.143Z,14.40
2017-08-13T02:46:39.722Z,14.40
2017-08-13T02:49:07.362Z,14.40
2017-08-13T02:51:35.711Z,14.40
2017-08-13T02:54:03.292Z,14.30
2017-08-13T02:56:31.148Z,14.30
2017-08-13T02:58:58.713Z,14.30
2017-08-13T03:01:26.278Z,14.20
2017-08-13T03:03:53.906Z,14.30
2017-08-13T03:06:21.487Z,14.30
2017-08-13T03:08:49.842Z,14.30
2017-08-13T03:11:17.566Z,14.30
2017-08-13T03:13:45.149Z,14.30
2017-08-13T03:16:12.734Z,14.30
2017-08-13T03:18:40.378Z,14.30
2017-08-13T03:21:07.971Z,14.30
2017-08-13T03:23:36.323Z,14.30
2017-08-13T03:26:03.969Z,14.20
2017-08-13T03:28:31.550Z,14.20
2017-08-13T03:30:59.118Z,14.20
2017-08-13T03:33:26.745Z,14.20
2017-08-13T03:35:54.328Z,14.10
2017-08-13T03:38:21.906Z,14.00
2017-08-13T03:40:50.282Z,14.00
2017-08-13T03:43:17.859Z,13.90
2017-08-13T03:45:45.447Z,13.90
2017-08-13T03:48:13.085Z,13.90
2017-08-13T03:50:40.675Z,13.90
2017-08-13T03:53:08.268Z,13.80
2017-08-13T03:55:35.897Z,13.80
2017-08-13T03:58:03.462Z,13.80
2017-08-13T04:00:31.815Z,13.80
2017-08-13T04:02:59.457Z,13.80
2017-08-13T04:05:27.026Z,13.80
2017-08-13T04:07:55.377Z,13.80
2017-08-13T04:10:23.981Z,13.80
2017-08-13T04:12:51.570Z,13.80
2017-08-13T04:15:19.166Z,13.80
2017-08-13T04:17:46.792Z,13.90
2017-08-13T04:20:15.325Z,13.90
2017-08-13T04:22:42.908Z,13.90
2017-08-13T04:25:11.312Z,14.00
2017-08-13T04:27:38.883Z,14.00
2017-08-13T04:30:06.477Z,14.00
2017-08-13T04:32:34.082Z,14.00
2017-08-13T04:35:01.668Z,14.10
2017-08-13T04:37:29.253Z,14.20
2017-08-13T04:39:56.881Z,14.20
2017-08-13T04:42:24.473Z,14.30
2017-08-13T04:44:52.826Z,14.30
2017-08-13T04:47:21.237Z,14.40
2017-08-13T04:49:48.832Z,14.40
2017-08-13T04:52:16.418Z,14.40
2017-08-13T04:54:44.157Z,14.40
2017-08-13T04:57:11.722Z,14.50
2017-08-13T04:59:39.294Z,14.60
2017-08-13T05:02:06.918Z,14.80
2017-08-13T05:04:34.500Z,15.00
2017-08-13T05:07:02.868Z,16.10
2017-08-13T05:09:31.250Z,17.40
2017-08-13T05:11:58.825Z,17.40
2017-08-13T05:14:26.399Z,19.60
2017-08-13T05:16:54.011Z,20.90
2017-08-13T05:19:21.629Z,21.10
2017-08-13T05:21:49.224Z,22.00
2017-08-13T05:24:16.856Z,23.10
2017-08-13T05:26:44.441Z,23.40
2017-08-13T05:29:12.788Z,24.60
2017-08-13T05:31:40.413Z,24.60
2017-08-13T05:34:07.975Z,24.80
2017-08-13T05:36:35.543Z,25.00
2017-08-13T05:39:03.943Z,23.50
2017-08-13T05:41:31.537Z,23.50
2017-08-13T05:43:59.135Z,22.80
2017-08-13T05:46:26.774Z,22.00
2017-08-13T05:48:54.346Z,21.30
2017-08-13T05:51:21.910Z,21.00
2017-08-13T05:53:49.552Z,20.90
2017-08-13T05:56:17.173Z,21.00
2017-08-13T05:58:44.774Z,21.00
2017-08-13T06:01:12.638Z,20.80
2017-08-13T06:03:40.218Z,20.90
2017-08-13T06:06:07.813Z,21.40
2017-08-13T06:08:35.659Z,21.60
2017-08-13T06:11:04.131Z,22.70
2017-08-13T06:13:31.718Z,22.70
2017-08-13T06:15:59.330Z,22.70
2017-08-13T06:18:26.914Z,22.80
2017-08-13T06:20:54.501Z,23.90
2017-08-13T06:23:22.127Z,24.00
2017-08-13T06:25:50.467Z,22.50
2017-08-13T06:28:18.030Z,22.50
2017-08-13T06:30:46.420Z,20.60
2017-08-13T06:33:14.006Z,20.50
2017-08-13T06:35:41.603Z,20.10
2017-08-13T06:38:09.377Z,20.40
2017-08-13T06:40:36.955Z,21.30
2017-08-13T06:43:04.519Z,22.10
2017-08-13T06:45:32.933Z,22.60
2017-08-13T06:48:00.516Z,22.60
2017-08-13T06:50:28.083Z,23.00
2017-08-13T06:52:56.468Z,23.80
2017-08-13T06:55:24.038Z,23.80
2017-08-13T06:57:51.625Z,23.90
2017-08-13T07:00:19.995Z,23.50
2017-08-13T07:02:47.588Z,23.50
2017-08-13T07:05:15.182Z,23.50
2017-08-13T07:07:42.838Z,23.50
2017-08-13T07:10:10.406Z,23.50
2017-08-13T07:12:37.976Z,23.50
2017-08-13T07:15:05.630Z,23.30
2017-08-13T07:17:33.217Z,23.00
2017-08-13T07:20:00.800Z,22.90
2017-08-13T07:22:28.629Z,22.80
2017-08-13T07:24:56.231Z,22.80
2017-08-13T07:27:24.681Z,23.10
2017-08-13T07:29:52.301Z,23.10
2017-08-13T07:32:19.863Z,23.40
2017-08-13T07:35:55.859Z,23.40
2017-08-13T07:38:24.971Z,23.40
2017-08-13T07:40:53.503Z,23.40
2017-08-13T07:43:23.019Z,23.30
2017-08-13T07:45:52.576Z,23.40
2017-08-13T07:48:21.583Z,23.40
2017-08-13T07:50:49.832Z,23.40
2017-08-13T07:53:18.015Z,23.10
2017-08-13T07:55:46.135Z,22.80
2017-08-13T07:58:14.617Z,22.50
2017-08-13T08:00:43.699Z,22.50
2017-08-13T08:03:12.811Z,22.50
2017-08-13T08:05:41.477Z,22.40
2017-08-13T08:08:10.621Z,22.40
2017-08-13T08:10:40.475Z,22.50
2017-08-13T08:13:09.840Z,22.60
2017-08-13T08:15:38.560Z,23.10
2017-08-13T08:18:07.020Z,23.60
2017-08-13T08:20:34.877Z,23.60
2017-08-13T08:23:02.460Z,23.80
2017-08-13T08:25:30.042Z,23.90
2017-08-13T08:27:58.450Z,23.60
2017-08-13T08:30:26.032Z,23.60
2017-08-13T08:32:53.779Z,23.70
2017-08-13T08:35:21.409Z,23.70
2017-08-13T08:37:48.974Z,23.40
2017-08-13T08:40:16.548Z,23.40
2017-08-13T08:42:44.168Z,23.60
2017-08-13T08:45:12.522Z,24.20
2017-08-13T08:47:40.872Z,24.30
2017-08-13T08:50:08.506Z,24.20
2017-08-13T08:52:36.093Z,24.20
2017-08-13T08:55:04.427Z,24.20
2017-08-13T08:57:32.181Z,24.10
2017-08-13T08:59:59.758Z,24.30
2017-08-13T09:02:27.349Z,24.50
2017-08-13T09:04:54.986Z,24.60
2017-08-13T09:07:22.581Z,24.50
2017-08-13T09:09:52.358Z,24.90
2017-08-13T09:12:21.367Z,24.90
2017-08-13T09:14:49.807Z,24.80
2017-08-13T09:17:17.375Z,24.70
2017-08-13T09:19:45.139Z,24.60
2017-08-13T09:22:12.735Z,24.30
2017-08-13T09:24:40.324Z,24.20
2017-08-13T09:27:07.953Z,24.30
2017-08-13T09:29:35.537Z,24.30
2017-08-13T09:32:03.307Z,24.00
2017-08-13T09:34:33.131Z,24.00
2017-08-13T09:37:00.764Z,24.00
2017-08-13T09:39:29.847Z,23.40
2017-08-13T09:42:03.768Z,23.30
2017-08-13T09:44:31.453Z,23.30
2017-08-13T09:46:59.046Z,23.30
2017-08-13T09:49:26.672Z,23.20
2017-08-13T09:51:55.025Z,23.50
2017-08-13T09:54:22.603Z,23.40
2017-08-13T09:56:50.233Z,23.50
2017-08-13T09:59:18.558Z,23.20
2017-08-13T10:01:46.148Z,23.20
2017-08-13T10:04:13.958Z,23.30
2017-08-13T10:06:41.531Z,23.40
2017-08-13T10:09:09.962Z,23.20
2017-08-13T10:11:37.718Z,23.20
2017-08-13T10:14:05.309Z,23.30
2017-08-13T10:16:32.927Z,23.30
2017-08-13T10:19:01.340Z,23.00
2017-08-13T10:21:28.916Z,23.00
2017-08-13T10:23:56.512Z,22.80
2017-08-13T10:26:24.145Z,22.50
2017-08-13T10:28:51.747Z,22.30
2017-08-13T10:31:19.338Z,22.00
2017-08-13T10:33:47.004Z,21.80
2017-08-13T10:36:14.605Z,21.80
2017-08-13T10:38:45.412Z,21.60
2017-08-13T10:41:13.172Z,21.60
2017-08-13T10:43:40.793Z,21.50
2017-08-13T10:46:08.378Z,21.40
2017-08-13T10:48:36.072Z,21.50
2017-08-13T10:51:03.653Z,21.60
2017-08-13T10:53:31.246Z,21.60
2017-08-13T10:55:59.031Z,21.70
2017-08-13T10:58:27.593Z,21.70
2017-08-13T11:00:56.191Z,21.60
2017-08-13T11:03:25.196Z,21.50
2017-08-13T11:05:52.865Z,21.40
2017-08-13T11:08:20.447Z,21.30
2017-08-13T11:10:48.074Z,21.10
2017-08-13T11:13:16.417Z,21.40
2017-08-13T11:15:43.996Z,21.40
2017-08-13T11:18:11.619Z,21.40
2017-08-13T11:20:39.336Z,21.40
2017-08-13T11:23:06.916Z,21.50
2017-08-13T11:25:35.583Z,21.60
2017-08-13T11:28:06.888Z,21.60
2017-08-13T11:30:41.393Z,21.70
2017-08-13T11:33:09.067Z,21.80
2017-08-13T11:35:36.706Z,21.90
2017-08-13T11:38:04.470Z,21.90
2017-08-13T11:40:32.050Z,21.80
2017-08-13T11:42:59.629Z,21.80
2017-08-13T11:45:27.410Z,21.80
2017-08-13T11:47:54.985Z,21.90
2017-08-13T11:50:22.571Z,21.90
2017-08-13T11:52:50.375Z,22.00
2017-08-13T11:55:17.993Z,21.90
2017-08-13T11:57:45.581Z,21.80
2017-08-13T12:00:13.251Z,21.70
2017-08-13T12:02:40.858Z,21.70
2017-08-13T12:05:08.539Z,21.70
2017-08-13T12:07:36.499Z,21.70
2017-08-13T12:10:04.344Z,21.70
2017-08-13T12:12:31.924Z,21.70
2017-08-13T12:15:00.317Z,22.00
2017-08-13T12:17:27.954Z,22.00
2017-08-13T12:19:55.532Z,22.10
2017-08-13T12:22:23.183Z,22.20
2017-08-13T12:24:50.764Z,22.30
2017-08-13T12:27:19.095Z,22.50
2017-08-13T12:29:46.892Z,22.50
2017-08-13T12:32:14.468Z,22.50
2017-08-13T12:34:42.745Z,22.50
2017-08-13T12:37:10.429Z,22.50
2017-08-13T12:39:38.167Z,22.50
2017-08-13T12:42:05.744Z,22.60
2017-08-13T12:44:33.358Z,22.70
2017-08-13T12:47:06.815Z,22.90
2017-08-13T12:49:34.686Z,23.00
2017-08-13T12:52:02.272Z,22.80
2017-08-13T12:54:29.870Z,22.70
2017-08-13T12:56:58.391Z,23.00
2017-08-13T12:59:25.982Z,23.00
2017-08-13T13:01:54.324Z,23.20
2017-08-13T13:04:21.962Z,23.20
2017-08-13T13:06:49.557Z,23.20
2017-08-13T13:09:17.149Z,23.30
2017-08-13T13:11:45.331Z,23.30
2017-08-13T13:14:13.688Z,23.40
2017-08-13T13:16:41.272Z,23.40
2017-08-13T13:19:08.912Z,23.50
2017-08-13T13:21:36.487Z,23.60
2017-08-13T13:24:04.070Z,23.50
2017-08-13T13:26:31.687Z,23.50
2017-08-13T13:28:59.302Z,23.50
2017-08-13T13:31:26.897Z,23.50
2017-08-13T13:33:54.566Z,23.60
2017-08-13T13:36:22.950Z,24.20
2017-08-13T13:38:50.523Z,24.10
2017-08-13T13:41:18.194Z,24.20
2017-08-13T13:43:46.949Z,24.10
2017-08-13T13:46:14.529Z,24.10
2017-08-13T13:48:43.090Z,23.90
2017-08-13T13:51:11.423Z,23.80
2017-08-13T13:53:39.198Z,23.80
2017-08-13T13:56:07.608Z,23.70
2017-08-13T13:58:35.207Z,23.80
2017-08-13T14:01:03.614Z,23.40
2017-08-13T14:03:31.257Z,23.40
2017-08-13T14:05:58.850Z,23.10
2017-08-13T14:08:26.419Z,23.10
2017-08-13T14:10:54.109Z,23.00
2017-08-13T14:13:21.695Z,22.90
2017-08-13T14:15:50.050Z,22.40
2017-08-13T14:18:17.709Z,22.40
2017-08-13T14:20:46.070Z,22.50
2017-08-13T14:23:14.448Z,22.60
2017-08-13T14:25:42.265Z,22.50
2017-08-13T14:28:09.906Z,22.60
2017-08-13T14:30:37.548Z,22.70
2017-08-13T14:33:08.496Z,22.70
2017-08-13T14:35:36.653Z,22.70
2017-08-13T14:38:04.349Z,22.60
2017-08-13T14:40:32.324Z,22.80
2017-08-13T14:43:00.171Z,22.90
2017-08-13T14:45:27.840Z,23.00
2017-08-13T14:47:57.209Z,23.00
2017-08-13T14:50:24.963Z,23.00
2017-08-13T14:52:52.592Z,22.90
2017-08-13T14:55:20.270Z,22.90
2017-08-13T14:57:47.969Z,22.80
2017-08-13T15:00:15.675Z,22.60
2017-08-13T15:02:46.047Z,22.30
2017-08-13T15:05:13.802Z,22.00
2017-08-13T15:07:41.505Z,21.80
2017-08-13T15:10:09.226Z,21.70
2017-08-13T15:12:36.879Z,21.50
2017-08-13T15:15:04.789Z,21.50
2017-08-13T15:17:32.633Z,21.50
2017-08-13T15:20:00.387Z,21.50
2017-08-13T15:22:28.131Z,21.60
2017-08-13T15:24:55.815Z,21.90
2017-08-13T15:27:24.231Z,22.20
2017-08-13T15:29:51.840Z,22.20
2017-08-13T15:32:19.572Z,22.20
2017-08-13T15:34:47.288Z,22.00
2017-08-13T15:37:15.245Z,21.80
2017-08-13T15:39:43.186Z,21.70
2017-08-13T15:42:11.045Z,21.80
2017-08-13T15:44:38.658Z,21.90
2017-08-13T15:47:06.422Z,22.00
2017-08-13T15:49:34.082Z,22.00
2017-08-13T15:52:01.792Z,22.00
2017-08-13T15:54:29.549Z,21.90
2017-08-13T15:56:57.327Z,21.70
2017-08-13T15:59:25.185Z,21.60
2017-08-13T16:01:53.681Z,21.60
2017-08-13T16:04:21.319Z,21.60
2017-08-13T16:06:49.030Z,21.70
2017-08-13T16:09:16.980Z,21.70
2017-08-13T16:11:47.851Z,21.70
2017-08-13T16:14:15.581Z,21.60
2017-08-13T16:16:43.466Z,21.40
2017-08-13T16:19:11.112Z,21.40
2017-08-13T16:21:38.812Z,21.30
2017-08-13T16:24:06.567Z,21.20
2017-08-13T16:26:34.237Z,21.10
2017-08-13T16:29:01.885Z,21.10
2017-08-13T16:31:29.613Z,21.10
2017-08-13T16:33:58.020Z,21.20
2017-08-13T16:36:25.674Z,21.10
2017-08-13T16:38:53.346Z,21.10
2017-08-13T16:41:21.086Z,21.10
2017-08-13T16:43:48.713Z,21.00
2017-08-13T16:46:16.476Z,20.70
2017-08-13T16:48:44.165Z,20.60
2017-08-13T16:51:11.971Z,20.60
2017-08-13T16:53:40.596Z,20.50
2017-08-13T16:56:08.290Z,20.50
2017-08-13T16:58:36.061Z,20.50
2017-08-13T17:01:04.675Z,20.40
2017-08-13T17:03:32.342Z,20.40
2017-08-13T17:05:59.955Z,20.40
2017-08-13T17:08:27.604Z,20.40
2017-08-13T17:10:55.204Z,20.30
2017-08-13T17:13:22.801Z,20.30
2017-08-13T17:15:50.428Z,20.30
2017-08-13T17:18:18.025Z,20.30
2017-08-13T17:20:45.613Z,20.30
2017-08-13T17:23:13.262Z,20.20
2017-08-13T17:25:40.835Z,20.10
2017-08-13T17:28:08.406Z,20.00
2017-08-13T17:30:36.045Z,19.90
2017-08-13T17:33:03.629Z,19.90
2017-08-13T17:35:31.225Z,19.80
2017-08-13T17:37:58.870Z,19.70
2017-08-13T17:40:26.453Z,19.60
2017-08-13T17:42:54.066Z,19.50
2017-08-13T17:45:21.698Z,19.40
2017-08-13T17:47:49.276Z,19.40
2017-08-13T17:50:17.706Z,19.20
2017-08-13T17:52:45.344Z,19.20
2017-08-13T17:55:12.909Z,19.10
2017-08-13T17:57:40.478Z,19.00
2017-08-13T18:00:08.133Z,18.90
2017-08-13T18:02:35.722Z,18.90
2017-08-13T18:05:03.290Z,18.80
2017-08-13T18:07:30.921Z,18.80
2017-08-13T18:09:58.491Z,18.70
2017-08-13T18:12:26.066Z,18.60
2017-08-13T18:14:53.700Z,18.50
2017-08-13T18:17:21.293Z,18.40
2017-08-13T18:19:48.866Z,18.40
2017-08-13T18:22:17.260Z,18.20
2017-08-13T18:24:44.845Z,18.20
2017-08-13T18:27:12.428Z,18.20
2017-08-13T18:29:40.823Z,18.20
2017-08-13T18:32:08.417Z,18.10
2017-08-13T18:34:35.986Z,18.10
2017-08-13T18:37:03.652Z,18.10
2017-08-13T18:39:31.337Z,18.00
2017-08-13T18:41:58.915Z,17.90
2017-08-13T18:44:27.346Z,17.70
2017-08-13T18:46:55.091Z,17.70
2017-08-13T18:49:22.680Z,17.60
2017-08-13T18:51:50.374Z,17.50
2017-08-13T18:54:17.969Z,17.50
2017-08-13T18:56:45.563Z,17.40
2017-08-13T18:59:13.223Z,17.30
2017-08-13T19:01:40.789Z,17.20
2017-08-13T19:04:09.736Z,17.10
2017-08-13T19:06:37.365Z,17.10
2017-08-13T19:09:04.943Z,17.00
2017-08-13T19:11:32.523Z,16.90
2017-08-13T19:14:00.254Z,16.90
2017-08-13T19:16:28.605Z,16.70
2017-08-13T19:18:56.955Z,16.60
2017-08-13T19:21:25.386Z,16.60
2017-08-13T19:24:00.386Z,16.60
2017-08-13T19:26:28.025Z,16.50
2017-08-13T19:28:55.713Z,16.50
2017-08-13T19:31:23.325Z,16.40
2017-08-13T19:33:51.848Z,16.30
2017-08-13T19:36:20.210Z,16.20
2017-08-13T19:38:49.491Z,16.10
2017-08-13T19:41:17.375Z,16.10
2017-08-13T19:43:45.000Z,16.10
2017-08-13T19:46:12.584Z,16.00
2017-08-13T19:48:40.239Z,16.00
2017-08-13T19:51:07.847Z,15.90
2017-08-13T19:53:35.428Z,15.90
2017-08-13T19:56:03.056Z,15.80
2017-08-13T19:58:30.653Z,15.80
2017-08-13T20:00:59.002Z,15.70
2017-08-13T20:03:26.646Z,15.70
2017-08-13T20:05:54.228Z,15.60
2017-08-13T20:08:21.812Z,15.60
2017-08-13T20:10:49.453Z,15.50
2017-08-13T20:13:17.046Z,15.50
2017-08-13T20:15:45.400Z,15.40
2017-08-13T20:18:13.036Z,15.40
2017-08-13T20:20:40.620Z,15.40
2017-08-13T20:23:08.211Z,15.40
2017-08-13T20:25:35.850Z,15.30
2017-08-13T20:28:03.418Z,15.20
2017-08-13T20:30:30.999Z,15.20
2017-08-13T20:32:58.634Z,15.10
2017-08-13T20:35:26.220Z,15.10
2017-08-13T20:37:53.810Z,15.10
2017-08-13T20:40:22.342Z,15.00
2017-08-13T20:42:49.932Z,15.00
2017-08-13T20:45:17.518Z,14.90
2017-08-13T20:47:45.144Z,14.90
2017-08-13T20:50:12.729Z,14.80
2017-08-13T20:52:40.330Z,14.80
2017-08-13T20:55:08.086Z,14.80
2017-08-13T20:57:35.664Z,14.70
2017-08-13T21:00:03.243Z,14.70
2017-08-13T21:02:30.875Z,14.70
2017-08-13T21:04:58.451Z,14.60
2017-08-13T21:07:26.032Z,14.60
2017-08-13T21:09:53.656Z,14.60
2017-08-13T21:12:21.223Z,14.50
2017-08-13T21:14:48.802Z,14.50
2017-08-13T21:17:16.415Z,14.40
2017-08-13T21:19:44.001Z,14.40
2017-08-13T21:22:11.589Z,14.40
2017-08-13T21:24:39.366Z,14.30
2017-08-13T21:27:06.934Z,14.30
2017-08-13T21:29:34.525Z,14.30
2017-08-13T21:32:02.152Z,14.20
2017-08-13T21:34:29.719Z,14.20
2017-08-13T21:36:57.287Z,14.20
2017-08-13T21:39:24.913Z,14.20
2017-08-13T21:41:52.502Z,14.20
2017-08-13T21:44:20.084Z,14.20
2017-08-13T21:46:47.718Z,14.10
2017-08-13T21:49:15.291Z,14.10
2017-08-13T21:51:42.863Z,14.10
2017-08-13T21:54:10.499Z,14.10
2017-08-13T21:56:38.093Z,14.00
2017-08-13T21:59:05.672Z,14.00
2017-08-13T22:01:33.321Z,14.00
2017-08-13T22:04:00.900Z,14.00
2017-08-13T22:06:28.485Z,14.00
2017-08-13T22:08:56.129Z,14.00
2017-08-13T22:11:23.699Z,13.90
2017-08-13T22:13:51.276Z,13.90
2017-08-13T22:16:18.916Z,13.90
2017-08-13T22:18:46.489Z,13.90
2017-08-13T22:21:14.074Z,13.90
2017-08-13T22:23:41.845Z,13.80
2017-08-13T22:26:09.423Z,13.80
2017-08-13T22:28:36.997Z,13.80
2017-08-13T22:31:04.634Z,13.80
2017-08-13T22:33:32.197Z,13.70
2017-08-13T22:35:59.776Z,13.70
2017-08-13T22:38:28.150Z,13.60
2017-08-13T22:40:55.731Z,13.60
2017-08-13T22:43:23.295Z,13.60
2017-08-13T22:45:50.912Z,13.60
2017-08-13T22:48:18.495Z,13.50
2017-08-13T22:50:46.076Z,13.50
2017-08-13T22:53:13.689Z,13.50
2017-08-13T22:55:42.044Z,13.50
2017-08-13T22:58:09.636Z,13.50
2017-08-13T23:00:37.242Z,13.40
2017-08-13T23:03:05.590Z,13.40
2017-08-13T23:05:33.167Z,13.40
2017-08-13T23:08:01.002Z,13.40
2017-08-13T23:10:29.343Z,13.30
2017-08-13T23:12:56.928Z,13.30
2017-08-13T23:15:24.547Z,13.30
2017-08-13T23:17:52.941Z,13.20
2017-08-13T23:20:20.539Z,13.20
2017-08-13T23:22:48.180Z,13.20
2017-08-13T23:25:15.759Z,13.20
2017-08-13T23:27:43.344Z,13.10
2017-08-13T23:30:11.016Z,13.10
2017-08-13T23:32:38.596Z,13.10
2017-08-13T23:35:06.183Z,13.10
2017-08-13T23:37:33.847Z,13.10
2017-08-13T23:40:01.437Z,13.00
2017-08-13T23:42:29.021Z,13.00
2017-08-13T23:44:56.788Z,13.00
2017-08-13T23:47:24.371Z,13.00
2017-08-13T23:49:51.953Z,13.00
2017-08-13T23:52:19.600Z,13.00
2017-08-13T23:54:47.187Z,12.90
2017-08-13T23:57:15.572Z,12.90
2017-08-13T23:59:43.417Z,12.80
